Terminal Aerodrome Forecast
Issued by NWS

Home | Current Version | Previous Version | Text Only | Print | Product List | Glossary On
Versions: 1 2 3 4 5 6 7 8 9 10 11 12 13 14 15 16 17 18 19 20
595
FTUS44 KBMX 271217 CCA
TAFTOI
TAF COR
KTOI 271217Z 2712/2812 00000KT P6SM FEW002
      TEMPO 2712/2713 3SM BR BKN002
     FM271400 VRB03KT P6SM FEW010
     FM271600 25005KT P6SM SCT040
     FM272100 24005KT P6SM SCT050 PROB30 2721/2724 4SM -TSRA
      BKN030CB=

USA.gov is the U.S. government's official web portal to all federal, state and local government web resources and services.